Chesterville, Ohio
Current Conditions -  °F | °C
As of 6:16 AM on Sunday 23 Nov 2014 (Local Time) from K4I3 Reporting Station
Broken Clouds Broken Clouds  
Wind Chill: 43°   Ceiling: 5500
Heat Index: 43°   Visibility: 10mi
Dew Point: 34°   Wind: 3mph
Humidity: 70%   Direction: 140°SE
Pressure: 30.04"   Gusts: NA
Location:  40.48°N, 82.68°W
Report Text: K4I3 231116Z AUTO 14003KT 10SM SCT050 BKN055 BKN080 06/01 A3004 RMK AO2
Loading
Personal Weather Stations






























Interactive Weather Map New forecast layout! Learn more

10-Day Weather Forecast

Advertisements
Track Severe Weather on mobile